sensor_id;sensor_type;location;lat;lon;timestamp;P1;durP1;ratioP1;P2;durP2;ratioP2
37843;SDS011;23930;57.632;18.292;2022-08-01T00:00:35;1.77;;;1.67;;
37843;SDS011;23930;57.632;18.292;2022-08-01T00:03:02;2.58;;;1.67;;
37843;SDS011;23930;57.632;18.292;2022-08-01T00:05:29;3.15;;;1.60;;
37843;SDS011;23930;57.632;18.292;2022-08-01T00:07:56;3.15;;;1.58;;
37843;SDS011;23930;57.632;18.292;2022-08-01T00:10:23;2.10;;;1.90;;
37843;SDS011;23930;57.632;18.292;2022-08-01T00:12:50;1.95;;;1.80;;
37843;SDS011;23930;57.632;18.292;2022-08-01T00:15:17;2.55;;;1.95;;
37843;SDS011;23930;57.632;18.292;2022-08-01T00:17:44;2.50;;;1.30;;
37843;SDS011;23930;57.632;18.292;2022-08-01T00:20:12;2.58;;;2.38;;
37843;SDS011;23930;57.632;18.292;2022-08-01T00:22:40;2.47;;;2.10;;
37843;SDS011;23930;57.632;18.292;2022-08-01T00:25:07;3.45;;;1.58;;
37843;SDS011;23930;57.632;18.292;2022-08-01T00:27:34;2.50;;;2.25;;
37843;SDS011;23930;57.632;18.292;2022-08-01T00:30:03;3.63;;;2.25;;
37843;SDS011;23930;57.632;18.292;2022-08-01T00:32:40;2.33;;;2.03;;
37843;SDS011;23930;57.632;18.292;2022-08-01T00:35:09;2.38;;;2.08;;
37843;SDS011;23930;57.632;18.292;2022-08-01T00:37:37;2.13;;;1.92;;
37843;SDS011;23930;57.632;18.292;2022-08-01T00:40:04;1.90;;;1.80;;
37843;SDS011;23930;57.632;18.292;2022-08-01T00:42:31;1.88;;;1.77;;
37843;SDS011;23930;57.632;18.292;2022-08-01T00:44:58;3.70;;;1.75;;
37843;SDS011;23930;57.632;18.292;2022-08-01T00:47:25;2.85;;;2.10;;
37843;SDS011;23930;57.632;18.292;2022-08-01T00:49:52;2.38;;;2.17;;
37843;SDS011;23930;57.632;18.292;2022-08-01T00:52:19;2.75;;;2.15;;
37843;SDS011;23930;57.632;18.292;2022-08-01T00:54:46;2.13;;;1.80;;
37843;SDS011;23930;57.632;18.292;2022-08-01T00:57:14;4.03;;;1.63;;
37843;SDS011;23930;57.632;18.292;2022-08-01T01:00:03;3.22;;;2.20;;
37843;SDS011;23930;57.632;18.292;2022-08-01T01:02:31;3.17;;;2.03;;
37843;SDS011;23930;57.632;18.292;2022-08-01T01:04:58;1.60;;;1.50;;
37843;SDS011;23930;57.632;18.292;2022-08-01T01:07:30;2.22;;;1.90;;
37843;SDS011;23930;57.632;18.292;2022-08-01T01:10:16;2.97;;;1.85;;
37843;SDS011;23930;57.632;18.292;2022-08-01T01:15:34;1.70;;;1.55;;
37843;SDS011;23930;57.632;18.292;2022-08-01T01:20:57;1.42;;;1.33;;
37843;SDS011;23930;57.632;18.292;2022-08-01T01:26:36;3.03;;;2.13;;
37843;SDS011;23930;57.632;18.292;2022-08-01T01:29:21;1.75;;;1.65;;
37843;SDS011;23930;57.632;18.292;2022-08-01T01:32:18;1.98;;;1.77;;
37843;SDS011;23930;57.632;18.292;2022-08-01T01:34:56;1.65;;;1.55;;
37843;SDS011;23930;57.632;18.292;2022-08-01T01:37:25;1.90;;;1.80;;
37843;SDS011;23930;57.632;18.292;2022-08-01T01:39:54;1.98;;;1.63;;
37843;SDS011;23930;57.632;18.292;2022-08-01T01:42:22;4.38;;;2.10;;
37843;SDS011;23930;57.632;18.292;2022-08-01T01:44:52;3.00;;;2.50;;
37843;SDS011;23930;57.632;18.292;2022-08-01T01:47:20;1.95;;;1.52;;
37843;SDS011;23930;57.632;18.292;2022-08-01T01:49:49;1.60;;;1.50;;
37843;SDS011;23930;57.632;18.292;2022-08-01T01:52:18;1.35;;;1.25;;
37843;SDS011;23930;57.632;18.292;2022-08-01T01:54:47;1.75;;;1.65;;
37843;SDS011;23930;57.632;18.292;2022-08-01T01:57:16;1.20;;;1.10;;
37843;SDS011;23930;57.632;18.292;2022-08-01T01:59:45;4.18;;;1.88;;
37843;SDS011;23930;57.632;18.292;2022-08-01T02:02:14;2.38;;;1.75;;
37843;SDS011;23930;57.632;18.292;2022-08-01T02:04:43;2.13;;;1.92;;
37843;SDS011;23930;57.632;18.292;2022-08-01T02:07:12;2.28;;;1.60;;
37843;SDS011;23930;57.632;18.292;2022-08-01T02:09:43;1.77;;;1.20;;
37843;SDS011;23930;57.632;18.292;2022-08-01T02:12:13;2.78;;;1.60;;
37843;SDS011;23930;57.632;18.292;2022-08-01T02:14:43;5.22;;;2.42;;
37843;SDS011;23930;57.632;18.292;2022-08-01T02:17:15;2.40;;;1.63;;
37843;SDS011;23930;57.632;18.292;2022-08-01T02:19:44;1.90;;;1.60;;
37843;SDS011;23930;57.632;18.292;2022-08-01T02:22:19;1.42;;;1.33;;
37843;SDS011;23930;57.632;18.292;2022-08-01T02:25:10;2.30;;;1.60;;
37843;SDS011;23930;57.632;18.292;2022-08-01T02:27:46;1.52;;;1.42;;
37843;SDS011;23930;57.632;18.292;2022-08-01T02:30:20;3.75;;;1.30;;
37843;SDS011;23930;57.632;18.292;2022-08-01T02:32:51;1.58;;;1.48;;
37843;SDS011;23930;57.632;18.292;2022-08-01T02:35:28;1.75;;;1.65;;
37843;SDS011;23930;57.632;18.292;2022-08-01T02:37:58;2.40;;;1.30;;
37843;SDS011;23930;57.632;18.292;2022-08-01T02:40:28;1.80;;;1.70;;
37843;SDS011;23930;57.632;18.292;2022-08-01T02:42:57;1.30;;;1.20;;
37843;SDS011;23930;57.632;18.292;2022-08-01T02:45:27;4.50;;;1.53;;
37843;SDS011;23930;57.632;18.292;2022-08-01T02:47:56;1.30;;;1.20;;
37843;SDS011;23930;57.632;18.292;2022-08-01T02:50:28;2.05;;;1.73;;
37843;SDS011;23930;57.632;18.292;2022-08-01T02:52:58;2.63;;;1.63;;
37843;SDS011;23930;57.632;18.292;2022-08-01T02:55:26;1.70;;;1.60;;
37843;SDS011;23930;57.632;18.292;2022-08-01T02:57:54;2.00;;;1.83;;
37843;SDS011;23930;57.632;18.292;2022-08-01T03:00:26;2.40;;;1.33;;
37843;SDS011;23930;57.632;18.292;2022-08-01T03:02:56;2.47;;;1.73;;
37843;SDS011;23930;57.632;18.292;2022-08-01T03:05:25;1.65;;;1.55;;
37843;SDS011;23930;57.632;18.292;2022-08-01T03:07:54;3.25;;;1.92;;
37843;SDS011;23930;57.632;18.292;2022-08-01T03:10:28;2.05;;;1.85;;
37843;SDS011;23930;57.632;18.292;2022-08-01T03:12:57;2.15;;;1.40;;
37843;SDS011;23930;57.632;18.292;2022-08-01T03:15:26;1.35;;;1.20;;
37843;SDS011;23930;57.632;18.292;2022-08-01T03:17:56;1.70;;;1.60;;
37843;SDS011;23930;57.632;18.292;2022-08-01T03:20:25;2.05;;;1.70;;
37843;SDS011;23930;57.632;18.292;2022-08-01T03:22:53;1.70;;;1.60;;
37843;SDS011;23930;57.632;18.292;2022-08-01T03:25:21;1.92;;;1.27;;
37843;SDS011;23930;57.632;18.292;2022-08-01T03:27:54;1.92;;;1.70;;
37843;SDS011;23930;57.632;18.292;2022-08-01T03:30:23;2.28;;;1.80;;
37843;SDS011;23930;57.632;18.292;2022-08-01T03:32:52;2.55;;;2.35;;
37843;SDS011;23930;57.632;18.292;2022-08-01T03:35:20;1.98;;;1.73;;
37843;SDS011;23930;57.632;18.292;2022-08-01T03:37:50;2.40;;;2.17;;
37843;SDS011;23930;57.632;18.292;2022-08-01T03:43:18;2.28;;;2.08;;
37843;SDS011;23930;57.632;18.292;2022-08-01T03:45:51;2.22;;;1.60;;
37843;SDS011;23930;57.632;18.292;2022-08-01T03:48:21;1.65;;;1.55;;
37843;SDS011;23930;57.632;18.292;2022-08-01T03:50:53;4.05;;;1.88;;
37843;SDS011;23930;57.632;18.292;2022-08-01T03:53:24;1.83;;;1.40;;
37843;SDS011;23930;57.632;18.292;2022-08-01T03:55:54;1.75;;;1.58;;
37843;SDS011;23930;57.632;18.292;2022-08-01T03:58:24;5.15;;;1.65;;
37843;SDS011;23930;57.632;18.292;2022-08-01T04:00:51;2.38;;;2.00;;
37843;SDS011;23930;57.632;18.292;2022-08-01T04:03:18;2.17;;;1.92;;
37843;SDS011;23930;57.632;18.292;2022-08-01T04:05:46;2.25;;;1.30;;
37843;SDS011;23930;57.632;18.292;2022-08-01T04:08:13;1.73;;;1.63;;
37843;SDS011;23930;57.632;18.292;2022-08-01T04:10:40;2.58;;;1.85;;
37843;SDS011;23930;57.632;18.292;2022-08-01T04:13:07;2.08;;;1.38;;
37843;SDS011;23930;57.632;18.292;2022-08-01T04:15:34;3.53;;;1.92;;
37843;SDS011;23930;57.632;18.292;2022-08-01T04:18:01;4.35;;;1.48;;
37843;SDS011;23930;57.632;18.292;2022-08-01T04:20:28;1.40;;;1.30;;
37843;SDS011;23930;57.632;18.292;2022-08-01T04:22:55;3.17;;;2.17;;
37843;SDS011;23930;57.632;18.292;2022-08-01T04:25:26;1.65;;;1.30;;
37843;SDS011;23930;57.632;18.292;2022-08-01T04:27:58;1.77;;;1.65;;
37843;SDS011;23930;57.632;18.292;2022-08-01T04:30:31;2.80;;;2.00;;
37843;SDS011;23930;57.632;18.292;2022-08-01T04:33:01;2.15;;;1.92;;
37843;SDS011;23930;57.632;18.292;2022-08-01T04:35:31;3.35;;;2.15;;
37843;SDS011;23930;57.632;18.292;2022-08-01T04:38:21;2.58;;;1.48;;
37843;SDS011;23930;57.632;18.292;2022-08-01T04:40:50;3.25;;;2.42;;
37843;SDS011;23930;57.632;18.292;2022-08-01T04:43:18;2.15;;;1.70;;
37843;SDS011;23930;57.632;18.292;2022-08-01T04:45:46;2.33;;;1.83;;
37843;SDS011;23930;57.632;18.292;2022-08-01T04:48:15;2.83;;;1.80;;
37843;SDS011;23930;57.632;18.292;2022-08-01T04:50:48;1.77;;;1.67;;
37843;SDS011;23930;57.632;18.292;2022-08-01T04:53:16;3.45;;;2.17;;
37843;SDS011;23930;57.632;18.292;2022-08-01T04:55:45;2.85;;;2.00;;
37843;SDS011;23930;57.632;18.292;2022-08-01T04:58:14;2.35;;;1.42;;
37843;SDS011;23930;57.632;18.292;2022-08-01T05:00:44;1.60;;;1.25;;
37843;SDS011;23930;57.632;18.292;2022-08-01T05:03:12;3.60;;;1.65;;
37843;SDS011;23930;57.632;18.292;2022-08-01T05:05:39;1.73;;;1.13;;
37843;SDS011;23930;57.632;18.292;2022-08-01T05:08:05;1.40;;;0.88;;
37843;SDS011;23930;57.632;18.292;2022-08-01T05:10:33;1.25;;;0.90;;
37843;SDS011;23930;57.632;18.292;2022-08-01T05:13:00;2.58;;;1.23;;
37843;SDS011;23930;57.632;18.292;2022-08-01T05:15:27;1.67;;;1.23;;
37843;SDS011;23930;57.632;18.292;2022-08-01T05:17:54;1.80;;;1.05;;
37843;SDS011;23930;57.632;18.292;2022-08-01T05:20:21;1.02;;;0.93;;
37843;SDS011;23930;57.632;18.292;2022-08-01T05:22:48;2.85;;;1.50;;
37843;SDS011;23930;57.632;18.292;2022-08-01T05:25:15;0.93;;;0.88;;
37843;SDS011;23930;57.632;18.292;2022-08-01T05:30:22;1.77;;;1.67;;
37843;SDS011;23930;57.632;18.292;2022-08-01T05:32:49;2.58;;;1.20;;
37843;SDS011;23930;57.632;18.292;2022-08-01T05:35:16;0.98;;;0.95;;
37843;SDS011;23930;57.632;18.292;2022-08-01T05:37:43;1.10;;;1.02;;
37843;SDS011;23930;57.632;18.292;2022-08-01T05:40:10;1.15;;;1.00;;
37843;SDS011;23930;57.632;18.292;2022-08-01T05:42:37;1.73;;;1.23;;
37843;SDS011;23930;57.632;18.292;2022-08-01T05:45:04;1.85;;;1.20;;
37843;SDS011;23930;57.632;18.292;2022-08-01T05:47:31;1.42;;;1.13;;
37843;SDS011;23930;57.632;18.292;2022-08-01T05:49:58;5.65;;;1.30;;
37843;SDS011;23930;57.632;18.292;2022-08-01T05:52:25;1.25;;;0.95;;
37843;SDS011;23930;57.632;18.292;2022-08-01T05:54:52;2.38;;;1.08;;
37843;SDS011;23930;57.632;18.292;2022-08-01T05:57:19;1.48;;;1.25;;
37843;SDS011;23930;57.632;18.292;2022-08-01T05:59:47;1.00;;;1.00;;
37843;SDS011;23930;57.632;18.292;2022-08-01T06:02:14;0.85;;;0.85;;
37843;SDS011;23930;57.632;18.292;2022-08-01T06:04:41;0.57;;;0.57;;
37843;SDS011;23930;57.632;18.292;2022-08-01T06:07:08;1.55;;;0.68;;
37843;SDS011;23930;57.632;18.292;2022-08-01T06:09:35;2.28;;;0.90;;
37843;SDS011;23930;57.632;18.292;2022-08-01T06:12:02;1.85;;;1.27;;
37843;SDS011;23930;57.632;18.292;2022-08-01T06:14:30;0.80;;;0.70;;
37843;SDS011;23930;57.632;18.292;2022-08-01T06:16:57;1.10;;;1.08;;
37843;SDS011;23930;57.632;18.292;2022-08-01T06:19:24;1.33;;;0.95;;
37843;SDS011;23930;57.632;18.292;2022-08-01T06:21:52;1.45;;;1.08;;
37843;SDS011;23930;57.632;18.292;2022-08-01T06:24:19;1.23;;;1.00;;
37843;SDS011;23930;57.632;18.292;2022-08-01T06:26:49;1.95;;;0.80;;
37843;SDS011;23930;57.632;18.292;2022-08-01T06:29:16;1.27;;;1.10;;
37843;SDS011;23930;57.632;18.292;2022-08-01T06:31:43;0.80;;;0.70;;
37843;SDS011;23930;57.632;18.292;2022-08-01T06:34:09;1.50;;;0.90;;
37843;SDS011;23930;57.632;18.292;2022-08-01T06:36:36;0.90;;;0.90;;
37843;SDS011;23930;57.632;18.292;2022-08-01T06:39:03;1.20;;;1.05;;
37843;SDS011;23930;57.632;18.292;2022-08-01T06:41:30;1.35;;;1.20;;
37843;SDS011;23930;57.632;18.292;2022-08-01T06:43:57;2.55;;;1.27;;
37843;SDS011;23930;57.632;18.292;2022-08-01T06:46:26;0.60;;;0.60;;
37843;SDS011;23930;57.632;18.292;2022-08-01T06:48:57;0.70;;;0.60;;
37843;SDS011;23930;57.632;18.292;2022-08-01T06:51:24;0.77;;;0.75;;
37843;SDS011;23930;57.632;18.292;2022-08-01T06:53:51;2.25;;;1.83;;
37843;SDS011;23930;57.632;18.292;2022-08-01T06:56:19;0.70;;;0.70;;
37843;SDS011;23930;57.632;18.292;2022-08-01T06:58:46;0.68;;;0.63;;
37843;SDS011;23930;57.632;18.292;2022-08-01T07:01:15;0.80;;;0.80;;
37843;SDS011;23930;57.632;18.292;2022-08-01T07:03:43;1.50;;;1.10;;
37843;SDS011;23930;57.632;18.292;2022-08-01T07:06:23;0.60;;;0.60;;
37843;SDS011;23930;57.632;18.292;2022-08-01T07:08:54;1.25;;;0.85;;
37843;SDS011;23930;57.632;18.292;2022-08-01T07:11:22;0.80;;;0.80;;
37843;SDS011;23930;57.632;18.292;2022-08-01T07:13:50;1.05;;;0.95;;
37843;SDS011;23930;57.632;18.292;2022-08-01T07:16:16;1.58;;;0.88;;
37843;SDS011;23930;57.632;18.292;2022-08-01T07:18:44;1.00;;;1.00;;
37843;SDS011;23930;57.632;18.292;2022-08-01T07:21:11;1.33;;;0.85;;
37843;SDS011;23930;57.632;18.292;2022-08-01T07:23:57;1.27;;;1.17;;
37843;SDS011;23930;57.632;18.292;2022-08-01T07:26:25;0.93;;;0.68;;
37843;SDS011;23930;57.632;18.292;2022-08-01T07:28:53;1.00;;;0.90;;
37843;SDS011;23930;57.632;18.292;2022-08-01T07:31:20;1.08;;;1.00;;
37843;SDS011;23930;57.632;18.292;2022-08-01T07:33:47;0.93;;;0.82;;
37843;SDS011;23930;57.632;18.292;2022-08-01T07:36:15;1.42;;;0.80;;
37843;SDS011;23930;57.632;18.292;2022-08-01T07:38:43;3.33;;;1.10;;
37843;SDS011;23930;57.632;18.292;2022-08-01T07:41:10;0.90;;;0.88;;
37843;SDS011;23930;57.632;18.292;2022-08-01T07:43:37;1.48;;;1.35;;
37843;SDS011;23930;57.632;18.292;2022-08-01T07:46:04;1.02;;;0.90;;
37843;SDS011;23930;57.632;18.292;2022-08-01T07:48:32;1.58;;;1.00;;
37843;SDS011;23930;57.632;18.292;2022-08-01T07:50:59;1.92;;;0.90;;
37843;SDS011;23930;57.632;18.292;2022-08-01T07:53:26;1.08;;;0.95;;
37843;SDS011;23930;57.632;18.292;2022-08-01T07:55:53;0.82;;;0.80;;
37843;SDS011;23930;57.632;18.292;2022-08-01T07:58:20;0.88;;;0.88;;
37843;SDS011;23930;57.632;18.292;2022-08-01T08:00:47;0.73;;;0.40;;
37843;SDS011;23930;57.632;18.292;2022-08-01T08:03:14;1.52;;;0.68;;
37843;SDS011;23930;57.632;18.292;2022-08-01T08:05:41;1.85;;;0.65;;
37843;SDS011;23930;57.632;18.292;2022-08-01T08:08:25;0.98;;;0.70;;
37843;SDS011;23930;57.632;18.292;2022-08-01T08:10:52;0.65;;;0.55;;
37843;SDS011;23930;57.632;18.292;2022-08-01T08:13:19;0.95;;;0.90;;
37843;SDS011;23930;57.632;18.292;2022-08-01T08:15:46;1.13;;;0.88;;
37843;SDS011;23930;57.632;18.292;2022-08-01T08:18:14;0.95;;;0.77;;
37843;SDS011;23930;57.632;18.292;2022-08-01T08:20:41;1.20;;;1.10;;
37843;SDS011;23930;57.632;18.292;2022-08-01T08:23:09;1.25;;;0.70;;
37843;SDS011;23930;57.632;18.292;2022-08-01T08:26:08;1.27;;;0.77;;
37843;SDS011;23930;57.632;18.292;2022-08-01T08:28:36;1.65;;;0.55;;
37843;SDS011;23930;57.632;18.292;2022-08-01T08:31:02;1.02;;;0.98;;
37843;SDS011;23930;57.632;18.292;2022-08-01T08:33:29;1.02;;;0.95;;
37843;SDS011;23930;57.632;18.292;2022-08-01T08:35:56;1.30;;;0.70;;
37843;SDS011;23930;57.632;18.292;2022-08-01T08:38:23;0.57;;;0.57;;
37843;SDS011;23930;57.632;18.292;2022-08-01T08:40:55;1.95;;;0.85;;
37843;SDS011;23930;57.632;18.292;2022-08-01T08:43:24;0.50;;;0.50;;
37843;SDS011;23930;57.632;18.292;2022-08-01T08:45:52;1.85;;;0.93;;
37843;SDS011;23930;57.632;18.292;2022-08-01T08:48:25;1.17;;;0.70;;
37843;SDS011;23930;57.632;18.292;2022-08-01T08:50:53;1.48;;;0.70;;
37843;SDS011;23930;57.632;18.292;2022-08-01T08:53:21;0.95;;;0.82;;
37843;SDS011;23930;57.632;18.292;2022-08-01T08:55:48;2.30;;;0.95;;
37843;SDS011;23930;57.632;18.292;2022-08-01T08:58:22;0.82;;;0.60;;
37843;SDS011;23930;57.632;18.292;2022-08-01T09:00:57;1.33;;;1.00;;
37843;SDS011;23930;57.632;18.292;2022-08-01T09:03:24;0.82;;;0.80;;
37843;SDS011;23930;57.632;18.292;2022-08-01T09:05:51;1.85;;;0.90;;
37843;SDS011;23930;57.632;18.292;2022-08-01T09:08:19;0.98;;;0.77;;
37843;SDS011;23930;57.632;18.292;2022-08-01T09:10:46;1.42;;;0.70;;
37843;SDS011;23930;57.632;18.292;2022-08-01T09:13:13;0.50;;;0.50;;
37843;SDS011;23930;57.632;18.292;2022-08-01T09:15:45;0.60;;;0.60;;
37843;SDS011;23930;57.632;18.292;2022-08-01T09:18:50;1.20;;;1.10;;
37843;SDS011;23930;57.632;18.292;2022-08-01T09:21:20;1.60;;;0.60;;
37843;SDS011;23930;57.632;18.292;2022-08-01T09:23:55;1.55;;;0.82;;
37843;SDS011;23930;57.632;18.292;2022-08-01T09:26:29;0.93;;;0.70;;
37843;SDS011;23930;57.632;18.292;2022-08-01T09:28:59;2.35;;;0.63;;
37843;SDS011;23930;57.632;18.292;2022-08-01T09:31:38;1.02;;;1.02;;
37843;SDS011;23930;57.632;18.292;2022-08-01T09:34:13;0.77;;;0.52;;
37843;SDS011;23930;57.632;18.292;2022-08-01T09:36:46;3.03;;;1.15;;
37843;SDS011;23930;57.632;18.292;2022-08-01T09:39:25;1.83;;;0.80;;
37843;SDS011;23930;57.632;18.292;2022-08-01T09:41:54;0.80;;;0.65;;
37843;SDS011;23930;57.632;18.292;2022-08-01T09:44:41;2.15;;;0.82;;
37843;SDS011;23930;57.632;18.292;2022-08-01T09:47:20;1.42;;;1.13;;
37843;SDS011;23930;57.632;18.292;2022-08-01T09:49:56;0.88;;;0.70;;
37843;SDS011;23930;57.632;18.292;2022-08-01T09:52:25;0.98;;;0.85;;
37843;SDS011;23930;57.632;18.292;2022-08-01T09:57:23;0.65;;;0.60;;
37843;SDS011;23930;57.632;18.292;2022-08-01T09:59:51;0.73;;;0.70;;
37843;SDS011;23930;57.632;18.292;2022-08-01T10:02:29;0.90;;;0.90;;
37843;SDS011;23930;57.632;18.292;2022-08-01T10:05:05;1.10;;;1.00;;
37843;SDS011;23930;57.632;18.292;2022-08-01T10:07:36;2.13;;;1.10;;
37843;SDS011;23930;57.632;18.292;2022-08-01T10:10:23;2.50;;;1.30;;
37843;SDS011;23930;57.632;18.292;2022-08-01T10:12:58;0.80;;;0.80;;
37843;SDS011;23930;57.632;18.292;2022-08-01T10:15:26;1.20;;;0.75;;
37843;SDS011;23930;57.632;18.292;2022-08-01T10:18:04;1.05;;;1.00;;
37843;SDS011;23930;57.632;18.292;2022-08-01T10:20:51;1.00;;;0.80;;
37843;SDS011;23930;57.632;18.292;2022-08-01T10:23:22;2.78;;;1.02;;
37843;SDS011;23930;57.632;18.292;2022-08-01T10:26:07;1.00;;;0.70;;
37843;SDS011;23930;57.632;18.292;2022-08-01T10:28:36;4.72;;;0.73;;
37843;SDS011;23930;57.632;18.292;2022-08-01T10:31:06;1.40;;;0.68;;
37843;SDS011;23930;57.632;18.292;2022-08-01T10:33:40;0.98;;;0.70;;
37843;SDS011;23930;57.632;18.292;2022-08-01T10:36:21;1.40;;;1.30;;
37843;SDS011;23930;57.632;18.292;2022-08-01T10:38:51;0.70;;;0.65;;
37843;SDS011;23930;57.632;18.292;2022-08-01T10:41:21;0.95;;;0.88;;
37843;SDS011;23930;57.632;18.292;2022-08-01T10:43:48;0.55;;;0.55;;
37843;SDS011;23930;57.632;18.292;2022-08-01T10:46:15;0.50;;;0.50;;
37843;SDS011;23930;57.632;18.292;2022-08-01T10:51:29;0.60;;;0.50;;
37843;SDS011;23930;57.632;18.292;2022-08-01T10:54:16;1.83;;;0.73;;
37843;SDS011;23930;57.632;18.292;2022-08-01T10:56:47;1.65;;;0.73;;
37843;SDS011;23930;57.632;18.292;2022-08-01T10:59:20;0.95;;;0.80;;
37843;SDS011;23930;57.632;18.292;2022-08-01T11:02:12;1.95;;;0.73;;
37843;SDS011;23930;57.632;18.292;2022-08-01T11:04:58;0.75;;;0.68;;
37843;SDS011;23930;57.632;18.292;2022-08-01T11:07:42;0.65;;;0.52;;
37843;SDS011;23930;57.632;18.292;2022-08-01T11:13:05;0.77;;;0.77;;
37843;SDS011;23930;57.632;18.292;2022-08-01T11:15:39;0.50;;;0.40;;
37843;SDS011;23930;57.632;18.292;2022-08-01T11:18:29;0.75;;;0.68;;
37843;SDS011;23930;57.632;18.292;2022-08-01T11:20:58;0.63;;;0.63;;
37843;SDS011;23930;57.632;18.292;2022-08-01T11:23:47;1.27;;;1.17;;
37843;SDS011;23930;57.632;18.292;2022-08-01T11:26:16;1.25;;;0.70;;
37843;SDS011;23930;57.632;18.292;2022-08-01T11:29:10;0.95;;;0.95;;
37843;SDS011;23930;57.632;18.292;2022-08-01T11:31:46;0.80;;;0.80;;
37843;SDS011;23930;57.632;18.292;2022-08-01T11:34:13;0.90;;;0.70;;
37843;SDS011;23930;57.632;18.292;2022-08-01T11:36:40;0.60;;;0.55;;
37843;SDS011;23930;57.632;18.292;2022-08-01T11:39:25;0.80;;;0.80;;
37843;SDS011;23930;57.632;18.292;2022-08-01T11:41:52;0.52;;;0.50;;
37843;SDS011;23930;57.632;18.292;2022-08-01T11:44:21;1.70;;;0.85;;
37843;SDS011;23930;57.632;18.292;2022-08-01T11:54:56;0.90;;;0.90;;
37843;SDS011;23930;57.632;18.292;2022-08-01T11:57:28;2.28;;;0.93;;
37843;SDS011;23930;57.632;18.292;2022-08-01T12:00:11;2.65;;;0.73;;
37843;SDS011;23930;57.632;18.292;2022-08-01T12:02:44;0.90;;;0.70;;
37843;SDS011;23930;57.632;18.292;2022-08-01T12:05:13;0.75;;;0.65;;
37843;SDS011;23930;57.632;18.292;2022-08-01T12:07:44;1.00;;;0.60;;
37843;SDS011;23930;57.632;18.292;2022-08-01T12:10:17;1.75;;;0.95;;
37843;SDS011;23930;57.632;18.292;2022-08-01T12:12:55;0.50;;;0.50;;
37843;SDS011;23930;57.632;18.292;2022-08-01T12:15:29;0.70;;;0.70;;
37843;SDS011;23930;57.632;18.292;2022-08-01T12:18:00;3.95;;;1.05;;
37843;SDS011;23930;57.632;18.292;2022-08-01T12:20:29;1.17;;;0.60;;
37843;SDS011;23930;57.632;18.292;2022-08-01T12:23:02;0.88;;;0.80;;
37843;SDS011;23930;57.632;18.292;2022-08-01T12:25:35;0.80;;;0.47;;
37843;SDS011;23930;57.632;18.292;2022-08-01T12:28:03;0.82;;;0.75;;
37843;SDS011;23930;57.632;18.292;2022-08-01T12:30:31;4.43;;;1.85;;
37843;SDS011;23930;57.632;18.292;2022-08-01T12:33:06;1.10;;;0.52;;
37843;SDS011;23930;57.632;18.292;2022-08-01T12:35:35;0.90;;;0.50;;
37843;SDS011;23930;57.632;18.292;2022-08-01T12:38:05;0.70;;;0.70;;
37843;SDS011;23930;57.632;18.292;2022-08-01T12:40:43;0.82;;;0.68;;
37843;SDS011;23930;57.632;18.292;2022-08-01T12:43:18;1.55;;;0.77;;
37843;SDS011;23930;57.632;18.292;2022-08-01T12:45:55;3.67;;;0.82;;
37843;SDS011;23930;57.632;18.292;2022-08-01T12:48:25;1.45;;;0.60;;
37843;SDS011;23930;57.632;18.292;2022-08-01T12:50:53;1.42;;;0.57;;
37843;SDS011;23930;57.632;18.292;2022-08-01T12:53:23;2.17;;;0.95;;
37843;SDS011;23930;57.632;18.292;2022-08-01T12:55:53;1.98;;;0.80;;
37843;SDS011;23930;57.632;18.292;2022-08-01T12:58:29;0.80;;;0.65;;
37843;SDS011;23930;57.632;18.292;2022-08-01T13:01:05;1.33;;;1.00;;
37843;SDS011;23930;57.632;18.292;2022-08-01T13:03:33;1.77;;;0.70;;
37843;SDS011;23930;57.632;18.292;2022-08-01T13:06:00;0.82;;;0.65;;
37843;SDS011;23930;57.632;18.292;2022-08-01T13:08:35;4.10;;;0.77;;
37843;SDS011;23930;57.632;18.292;2022-08-01T13:11:11;2.53;;;0.88;;
37843;SDS011;23930;57.632;18.292;2022-08-01T13:13:44;1.08;;;0.68;;
37843;SDS011;23930;57.632;18.292;2022-08-01T13:16:16;2.05;;;0.52;;
37843;SDS011;23930;57.632;18.292;2022-08-01T13:19:08;2.53;;;0.75;;
37843;SDS011;23930;57.632;18.292;2022-08-01T13:21:35;2.15;;;0.90;;
37843;SDS011;23930;57.632;18.292;2022-08-01T13:24:24;0.75;;;0.73;;
37843;SDS011;23930;57.632;18.292;2022-08-01T13:26:56;0.60;;;0.60;;
37843;SDS011;23930;57.632;18.292;2022-08-01T13:29:34;0.52;;;0.52;;
37843;SDS011;23930;57.632;18.292;2022-08-01T13:32:17;0.55;;;0.50;;
37843;SDS011;23930;57.632;18.292;2022-08-01T13:35:05;0.95;;;0.63;;
37843;SDS011;23930;57.632;18.292;2022-08-01T13:37:34;0.65;;;0.65;;
37843;SDS011;23930;57.632;18.292;2022-08-01T13:40:03;1.70;;;1.08;;
37843;SDS011;23930;57.632;18.292;2022-08-01T13:42:31;1.25;;;0.60;;
37843;SDS011;23930;57.632;18.292;2022-08-01T13:44:58;1.05;;;0.80;;
37843;SDS011;23930;57.632;18.292;2022-08-01T13:47:25;3.58;;;0.70;;
37843;SDS011;23930;57.632;18.292;2022-08-01T13:49:58;0.90;;;0.73;;
37843;SDS011;23930;57.632;18.292;2022-08-01T13:52:29;1.42;;;0.60;;
37843;SDS011;23930;57.632;18.292;2022-08-01T13:54:57;0.98;;;0.90;;
37843;SDS011;23930;57.632;18.292;2022-08-01T13:57:24;0.52;;;0.52;;
37843;SDS011;23930;57.632;18.292;2022-08-01T14:00:05;0.60;;;0.43;;
37843;SDS011;23930;57.632;18.292;2022-08-01T14:02:37;0.93;;;0.70;;
37843;SDS011;23930;57.632;18.292;2022-08-01T14:05:04;1.08;;;0.68;;
37843;SDS011;23930;57.632;18.292;2022-08-01T14:07:31;0.60;;;0.60;;
37843;SDS011;23930;57.632;18.292;2022-08-01T14:09:58;1.95;;;1.05;;
37843;SDS011;23930;57.632;18.292;2022-08-01T14:12:45;2.08;;;0.80;;
37843;SDS011;23930;57.632;18.292;2022-08-01T14:15:13;0.57;;;0.55;;
37843;SDS011;23930;57.632;18.292;2022-08-01T14:18:00;1.13;;;0.88;;
37843;SDS011;23930;57.632;18.292;2022-08-01T14:20:27;0.73;;;0.57;;
37843;SDS011;23930;57.632;18.292;2022-08-01T14:22:54;1.67;;;0.60;;
37843;SDS011;23930;57.632;18.292;2022-08-01T14:25:21;1.88;;;1.23;;
37843;SDS011;23930;57.632;18.292;2022-08-01T14:28:08;2.58;;;0.80;;
37843;SDS011;23930;57.632;18.292;2022-08-01T14:30:35;0.63;;;0.45;;
37843;SDS011;23930;57.632;18.292;2022-08-01T14:33:03;0.65;;;0.60;;
37843;SDS011;23930;57.632;18.292;2022-08-01T14:35:30;2.30;;;1.08;;
37843;SDS011;23930;57.632;18.292;2022-08-01T14:38:17;1.05;;;0.85;;
37843;SDS011;23930;57.632;18.292;2022-08-01T14:40:58;2.45;;;1.17;;
37843;SDS011;23930;57.632;18.292;2022-08-01T14:43:26;0.95;;;0.50;;
37843;SDS011;23930;57.632;18.292;2022-08-01T14:45:58;3.22;;;0.70;;
37843;SDS011;23930;57.632;18.292;2022-08-01T14:48:30;0.88;;;0.80;;
37843;SDS011;23930;57.632;18.292;2022-08-01T14:50:58;0.68;;;0.68;;
37843;SDS011;23930;57.632;18.292;2022-08-01T14:53:28;0.60;;;0.60;;
37843;SDS011;23930;57.632;18.292;2022-08-01T14:55:55;1.15;;;0.80;;
37843;SDS011;23930;57.632;18.292;2022-08-01T14:58:22;1.15;;;0.98;;
37843;SDS011;23930;57.632;18.292;2022-08-01T15:00:49;1.40;;;1.30;;
37843;SDS011;23930;57.632;18.292;2022-08-01T15:03:24;0.73;;;0.70;;
37843;SDS011;23930;57.632;18.292;2022-08-01T15:05:51;1.00;;;0.93;;
37843;SDS011;23930;57.632;18.292;2022-08-01T15:08:18;1.05;;;1.05;;
37843;SDS011;23930;57.632;18.292;2022-08-01T15:10:45;0.90;;;0.70;;
37843;SDS011;23930;57.632;18.292;2022-08-01T15:13:12;0.85;;;0.50;;
37843;SDS011;23930;57.632;18.292;2022-08-01T15:15:39;1.70;;;1.05;;
37843;SDS011;23930;57.632;18.292;2022-08-01T15:18:06;1.50;;;0.55;;
37843;SDS011;23930;57.632;18.292;2022-08-01T15:20:33;1.65;;;1.00;;
37843;SDS011;23930;57.632;18.292;2022-08-01T15:23:00;0.85;;;0.55;;
37843;SDS011;23930;57.632;18.292;2022-08-01T15:25:27;3.92;;;1.25;;